createdAt,value
2023-05-08T00:00:17.277Z,100
2023-05-08T00:05:17.188Z,100
2023-05-08T00:10:17.178Z,100
2023-05-08T00:15:17.061Z,100
2023-05-08T00:20:17.153Z,100
2023-05-08T00:25:17.639Z,100
2023-05-08T00:30:17.121Z,100
2023-05-08T00:35:17.054Z,100
2023-05-08T00:40:17.286Z,100
2023-05-08T00:45:17.369Z,100
2023-05-08T00:50:17.065Z,100
2023-05-08T00:55:17.242Z,100
2023-05-08T01:00:17.452Z,100
2023-05-08T01:05:17.185Z,100
2023-05-08T01:10:17.696Z,90
2023-05-08T01:15:17.686Z,100
2023-05-08T01:20:17.183Z,100
2023-05-08T01:25:17.349Z,95
2023-05-08T01:30:17.519Z,90
2023-05-08T01:35:17.330Z,87
2023-05-08T01:40:17.479Z,85
2023-05-08T01:45:19.008Z,84
2023-05-08T01:50:17.280Z,94
2023-05-08T01:55:17.395Z,90
2023-05-08T02:00:17.666Z,89
2023-05-08T02:05:17.665Z,87
2023-05-08T02:10:17.866Z,86
2023-05-08T02:15:17.368Z,84
2023-05-08T02:20:17.317Z,83
2023-05-08T02:25:17.931Z,82
2023-05-08T02:30:17.361Z,82
2023-05-08T02:35:17.461Z,80
2023-05-08T02:40:17.397Z,80
2023-05-08T02:45:17.549Z,80
2023-05-08T02:50:17.309Z,81
2023-05-08T02:55:17.724Z,82
2023-05-08T03:00:17.337Z,87
2023-05-08T03:05:17.248Z,90
2023-05-08T03:10:17.495Z,90
2023-05-08T03:15:17.435Z,94
2023-05-08T03:20:17.477Z,97
2023-05-08T03:25:17.361Z,100
2023-05-08T03:30:17.552Z,100
2023-05-08T03:35:17.378Z,100
2023-05-08T03:40:17.645Z,100
2023-05-08T03:45:18.990Z,100
2023-05-08T03:50:17.428Z,100
2023-05-08T03:55:17.669Z,100
2023-05-08T04:00:18.075Z,100
2023-05-08T04:05:18.611Z,100
2023-05-08T04:10:18.344Z,100
2023-05-08T04:15:18.089Z,100
2023-05-08T04:20:18.162Z,100
2023-05-08T04:25:18.577Z,100
2023-05-08T04:30:18.118Z,100
2023-05-08T04:35:18.097Z,100
2023-05-08T04:40:18.325Z,100
2023-05-08T04:45:18.277Z,100
2023-05-08T04:50:18.286Z,100
2023-05-08T04:55:18.978Z,100
2023-05-08T05:00:18.485Z,100
2023-05-08T05:05:18.539Z,100
2023-05-08T05:10:18.483Z,100
2023-05-08T05:15:18.552Z,100
2023-05-08T05:20:18.404Z,100
2023-05-08T05:25:18.458Z,100
2023-05-08T05:30:18.363Z,100
2023-05-08T05:35:18.582Z,100
2023-05-08T05:40:18.524Z,100
2023-05-08T05:45:19.024Z,100
2023-05-08T05:50:18.419Z,100
2023-05-08T05:55:18.474Z,100
2023-05-08T06:00:18.765Z,100
2023-05-08T06:05:18.409Z,100
2023-05-08T06:10:18.862Z,100
2023-05-08T06:15:18.380Z,100
2023-05-08T06:20:18.481Z,100
2023-05-08T06:25:18.771Z,100
2023-05-08T06:30:18.554Z,100
2023-05-08T06:35:18.378Z,100
2023-05-08T06:40:18.712Z,100
2023-05-08T06:45:18.692Z,100
2023-05-08T06:50:18.440Z,100
2023-05-08T06:55:18.733Z,100
2023-05-08T07:00:17.308Z,100
2023-05-08T07:05:17.833Z,100
2023-05-08T07:10:17.435Z,100
2023-05-08T07:15:25.489Z,100
2023-05-08T07:20:17.434Z,100
2023-05-08T07:25:17.445Z,100
2023-05-08T07:30:17.094Z,100
2023-05-08T07:35:17.832Z,100
2023-05-08T07:40:19.605Z,100
2023-05-08T07:45:18.695Z,100
2023-05-08T07:50:17.249Z,100
2023-05-08T07:55:17.313Z,100
2023-05-08T08:00:17.254Z,100
2023-05-08T08:05:17.254Z,100
2023-05-08T08:10:17.973Z,100
2023-05-08T08:15:17.127Z,100
2023-05-08T08:20:17.216Z,100
2023-05-08T08:25:17.251Z,100
2023-05-08T08:30:18.558Z,100
2023-05-08T08:35:17.688Z,100
2023-05-08T08:40:17.638Z,100
2023-05-08T08:45:17.542Z,100
2023-05-08T08:50:17.180Z,100
2023-05-08T08:55:17.282Z,100
2023-05-08T09:00:17.303Z,100
2023-05-08T09:05:17.361Z,100
2023-05-08T09:10:17.431Z,100
2023-05-08T09:15:18.020Z,100
2023-05-08T09:20:17.222Z,100
2023-05-08T09:25:17.358Z,100
2023-05-08T09:30:17.338Z,100
2023-05-08T09:35:17.494Z,100
2023-05-08T09:40:17.588Z,100
2023-05-08T09:45:18.642Z,100
2023-05-08T09:50:17.254Z,100
2023-05-08T09:55:18.066Z,100
2023-05-08T10:00:17.791Z,100
2023-05-08T10:05:17.263Z,100
2023-05-08T10:10:17.421Z,100
2023-05-08T10:15:17.531Z,100
2023-05-08T10:20:18.228Z,100
2023-05-08T10:25:17.373Z,100
2023-05-08T10:30:17.378Z,100
2023-05-08T10:35:17.328Z,100
2023-05-08T10:40:18.893Z,100
2023-05-08T10:45:17.370Z,100
2023-05-08T10:50:17.653Z,100
2023-05-08T10:55:17.475Z,100
2023-05-08T11:00:17.427Z,100
2023-05-08T11:05:17.762Z,100
2023-05-08T11:10:17.762Z,100
2023-05-08T11:15:18.046Z,100
2023-05-08T11:20:17.724Z,100
2023-05-08T11:25:18.301Z,100
2023-05-08T11:30:17.514Z,100
2023-05-08T11:35:17.377Z,100
2023-05-08T11:40:17.472Z,100
2023-05-08T11:45:18.800Z,100
2023-05-08T11:50:17.880Z,100
2023-05-08T11:55:17.500Z,100
2023-05-08T12:00:18.189Z,100
2023-05-08T12:05:17.481Z,100
2023-05-08T12:10:18.161Z,100
2023-05-08T12:15:18.105Z,100
2023-05-08T12:20:17.926Z,100
2023-05-08T12:25:18.454Z,100
2023-05-08T12:30:18.003Z,100
2023-05-08T12:35:17.745Z,100
2023-05-08T12:40:18.560Z,100
2023-05-08T12:45:17.594Z,100
2023-05-08T12:50:17.612Z,100
2023-05-08T12:55:17.879Z,100
2023-05-08T13:00:17.766Z,100
2023-05-08T13:05:17.818Z,100
2023-05-08T13:10:17.476Z,100
2023-05-08T13:15:17.640Z,100
2023-05-08T13:20:18.012Z,100
2023-05-08T13:25:18.332Z,100
2023-05-08T13:30:17.781Z,100
2023-05-08T13:35:18.483Z,100
2023-05-08T13:40:18.440Z,100
2023-05-08T13:45:19.181Z,100
2023-05-08T13:50:17.712Z,100
2023-05-08T13:55:17.839Z,100
2023-05-08T14:00:17.919Z,100
2023-05-08T14:05:17.688Z,100
2023-05-08T14:10:17.991Z,100
2023-05-08T14:15:17.924Z,100
2023-05-08T14:20:18.121Z,100
2023-05-08T14:25:18.019Z,100
2023-05-08T14:30:17.575Z,100
2023-05-08T14:35:17.906Z,100
2023-05-08T14:40:18.415Z,100
2023-05-08T14:45:18.574Z,100
2023-05-08T14:50:17.457Z,100
2023-05-08T14:55:18.377Z,100
2023-05-08T15:00:17.933Z,100
2023-05-08T15:06:23.072Z,100
2023-05-08T15:10:17.896Z,100
2023-05-08T15:15:17.800Z,100
2023-05-08T15:20:18.008Z,100
2023-05-08T15:25:17.836Z,100
2023-05-08T15:30:18.101Z,100
2023-05-08T15:35:17.873Z,100
2023-05-08T15:40:17.793Z,100
2023-05-08T15:45:19.167Z,100
2023-05-08T15:50:19.260Z,100
2023-05-08T15:55:17.863Z,100
2023-05-08T16:00:17.762Z,100
2023-05-08T16:05:18.351Z,100
2023-05-08T16:10:18.462Z,100
2023-05-08T16:15:17.643Z,100
2023-05-08T16:20:17.663Z,100
2023-05-08T16:25:18.210Z,100
2023-05-08T16:30:17.604Z,100
2023-05-08T16:35:17.832Z,100
2023-05-08T16:40:18.071Z,100
2023-05-08T16:45:17.759Z,100
2023-05-08T16:50:17.565Z,100
2023-05-08T16:55:17.792Z,100
2023-05-08T17:00:18.672Z,100
2023-05-08T17:05:18.096Z,100
2023-05-08T17:10:18.535Z,100
2023-05-08T17:15:17.820Z,100
2023-05-08T17:20:18.225Z,98
2023-05-08T17:25:18.981Z,100
2023-05-08T17:30:17.615Z,100
2023-05-08T17:35:17.934Z,98
2023-05-08T17:40:18.286Z,96
2023-05-08T17:45:19.188Z,96
2023-05-08T17:50:17.951Z,83
2023-05-08T17:55:18.013Z,81
2023-05-08T18:00:17.857Z,85
2023-05-08T18:05:18.588Z,81
2023-05-08T18:10:18.500Z,77
2023-05-08T18:15:18.572Z,76
2023-05-08T18:20:17.791Z,74
2023-05-08T18:25:17.998Z,71
2023-05-08T18:30:18.097Z,71
2023-05-08T18:35:17.559Z,71
2023-05-08T18:40:18.618Z,74
2023-05-08T18:45:17.874Z,70
2023-05-08T18:50:17.977Z,74
2023-05-08T18:55:18.124Z,72
2023-05-08T19:00:17.799Z,68
2023-05-08T19:05:17.993Z,71
2023-05-08T19:10:18.144Z,75
2023-05-08T19:15:18.257Z,75
2023-05-08T19:20:17.933Z,67
2023-05-08T19:25:18.503Z,76
2023-05-08T19:30:18.233Z,62
2023-05-08T19:35:17.733Z,65
2023-05-08T19:40:18.520Z,61
2023-05-08T19:45:19.682Z,51
2023-05-08T19:50:17.899Z,49
2023-05-08T19:55:18.529Z,51
2023-05-08T20:00:18.133Z,50
2023-05-08T20:05:22.925Z,49
2023-05-08T20:10:18.168Z,47
2023-05-08T20:15:18.161Z,49
2023-05-08T20:20:18.470Z,47
2023-05-08T20:25:18.320Z,50
2023-05-08T20:30:18.611Z,49
2023-05-08T20:35:18.752Z,47
2023-05-08T20:40:18.283Z,47
2023-05-08T20:45:18.287Z,47
2023-05-08T20:50:18.371Z,46
2023-05-08T20:55:18.596Z,49
2023-05-08T21:00:17.971Z,48
2023-05-08T21:05:18.254Z,48
2023-05-08T21:10:18.664Z,48
2023-05-08T21:15:18.373Z,48
2023-05-08T21:20:18.478Z,48
2023-05-08T21:25:18.571Z,47
2023-05-08T21:30:18.544Z,45
2023-05-08T21:35:18.633Z,46
2023-05-08T21:40:18.825Z,46
2023-05-08T21:45:19.603Z,46
2023-05-08T21:50:18.568Z,46
2023-05-08T21:55:18.612Z,44
2023-05-08T22:00:18.317Z,46
2023-05-08T22:05:18.497Z,45
2023-05-08T22:10:18.873Z,45
2023-05-08T22:15:29.216Z,46
2023-05-08T22:20:18.479Z,46
2023-05-08T22:25:18.846Z,48
2023-05-08T22:30:18.559Z,47
2023-05-08T22:35:17.308Z,47
2023-05-08T22:40:17.286Z,46
2023-05-08T22:45:17.212Z,48
2023-05-08T22:50:17.308Z,47
2023-05-08T22:55:17.708Z,45
2023-05-08T23:00:17.183Z,46
2023-05-08T23:05:17.200Z,46
2023-05-08T23:10:17.680Z,47
2023-05-08T23:15:17.135Z,48
2023-05-08T23:20:17.083Z,51
2023-05-08T23:25:17.315Z,64
2023-05-08T23:30:17.258Z,65
2023-05-08T23:35:17.656Z,71
2023-05-08T23:40:17.638Z,75
2023-05-08T23:45:18.870Z,79
2023-05-08T23:50:17.097Z,77
2023-05-08T23:55:17.383Z,78
